sensor_id;sensor_type;location;lat;lon;timestamp;P1;durP1;ratioP1;P2;durP2;ratioP2
52940;SDS011;62001;53.366;6.636;2022-10-16T00:01:28;8.32;;;2.10;;
52940;SDS011;62001;53.366;6.636;2022-10-16T00:03:55;8.93;;;2.20;;
52940;SDS011;62001;53.366;6.636;2022-10-16T00:06:25;8.60;;;2.22;;
52940;SDS011;62001;53.366;6.636;2022-10-16T00:08:52;12.88;;;2.55;;
52940;SDS011;62001;53.366;6.636;2022-10-16T00:11:19;7.57;;;2.42;;
52940;SDS011;62001;53.366;6.636;2022-10-16T00:13:47;11.17;;;2.57;;
52940;SDS011;62001;53.366;6.636;2022-10-16T00:16:15;11.48;;;2.53;;
52940;SDS011;62001;53.366;6.636;2022-10-16T00:18:41;8.07;;;2.65;;
52940;SDS011;62001;53.366;6.636;2022-10-16T00:21:09;9.23;;;2.53;;
52940;SDS011;62001;53.366;6.636;2022-10-16T00:23:37;10.98;;;3.03;;
52940;SDS011;62001;53.366;6.636;2022-10-16T00:26:04;8.50;;;2.60;;
52940;SDS011;62001;53.366;6.636;2022-10-16T00:28:32;10.25;;;2.80;;
52940;SDS011;62001;53.366;6.636;2022-10-16T00:30:58;11.95;;;2.75;;
52940;SDS011;62001;53.366;6.636;2022-10-16T00:33:27;8.80;;;2.58;;
52940;SDS011;62001;53.366;6.636;2022-10-16T00:35:53;13.82;;;2.50;;
52940;SDS011;62001;53.366;6.636;2022-10-16T00:38:19;12.20;;;2.58;;
52940;SDS011;62001;53.366;6.636;2022-10-16T00:40:44;6.30;;;2.50;;
52940;SDS011;62001;53.366;6.636;2022-10-16T00:43:14;7.43;;;2.63;;
52940;SDS011;62001;53.366;6.636;2022-10-16T00:46:01;8.85;;;2.60;;
52940;SDS011;62001;53.366;6.636;2022-10-16T00:48:27;8.10;;;2.25;;
52940;SDS011;62001;53.366;6.636;2022-10-16T00:50:54;9.40;;;2.10;;
52940;SDS011;62001;53.366;6.636;2022-10-16T00:53:20;7.60;;;2.50;;
52940;SDS011;62001;53.366;6.636;2022-10-16T00:55:47;6.03;;;2.05;;
52940;SDS011;62001;53.366;6.636;2022-10-16T00:58:12;6.82;;;1.92;;
52940;SDS011;62001;53.366;6.636;2022-10-16T01:00:38;7.60;;;2.08;;
52940;SDS011;62001;53.366;6.636;2022-10-16T01:03:26;7.78;;;3.20;;
52940;SDS011;62001;53.366;6.636;2022-10-16T01:14:03;6.82;;;2.00;;
52940;SDS011;62001;53.366;6.636;2022-10-16T01:16:38;6.55;;;1.73;;
52940;SDS011;62001;53.366;6.636;2022-10-16T01:19:25;6.40;;;1.70;;
52940;SDS011;62001;53.366;6.636;2022-10-16T01:21:53;8.13;;;2.40;;
52940;SDS011;62001;53.366;6.636;2022-10-16T01:24:31;12.15;;;2.22;;
52940;SDS011;62001;53.366;6.636;2022-10-16T01:27:10;6.22;;;1.92;;
52940;SDS011;62001;53.366;6.636;2022-10-16T01:40:11;4.50;;;1.77;;
52940;SDS011;62001;53.366;6.636;2022-10-16T01:42:44;8.02;;;1.83;;
52940;SDS011;62001;53.366;6.636;2022-10-16T01:45:13;11.75;;;1.92;;
52940;SDS011;62001;53.366;6.636;2022-10-16T01:47:43;4.72;;;1.70;;
52940;SDS011;62001;53.366;6.636;2022-10-16T01:50:10;5.53;;;1.80;;
52940;SDS011;62001;53.366;6.636;2022-10-16T01:52:39;5.63;;;1.67;;
52940;SDS011;62001;53.366;6.636;2022-10-16T01:55:10;4.15;;;1.85;;
52940;SDS011;62001;53.366;6.636;2022-10-16T01:57:40;4.63;;;1.80;;
52940;SDS011;62001;53.366;6.636;2022-10-16T02:00:11;5.43;;;1.83;;
52940;SDS011;62001;53.366;6.636;2022-10-16T02:02:40;10.07;;;1.88;;
52940;SDS011;62001;53.366;6.636;2022-10-16T02:07:58;7.85;;;1.77;;
52940;SDS011;62001;53.366;6.636;2022-10-16T02:10:24;6.65;;;1.80;;
52940;SDS011;62001;53.366;6.636;2022-10-16T02:12:54;7.65;;;1.92;;
52940;SDS011;62001;53.366;6.636;2022-10-16T02:15:23;8.38;;;1.80;;
52940;SDS011;62001;53.366;6.636;2022-10-16T02:17:49;3.92;;;1.60;;
52940;SDS011;62001;53.366;6.636;2022-10-16T02:20:15;8.05;;;2.03;;
52940;SDS011;62001;53.366;6.636;2022-10-16T02:22:45;6.97;;;2.08;;
52940;SDS011;62001;53.366;6.636;2022-10-16T02:25:24;5.07;;;1.98;;
52940;SDS011;62001;53.366;6.636;2022-10-16T02:30:38;6.00;;;1.90;;
52940;SDS011;62001;53.366;6.636;2022-10-16T02:33:12;5.30;;;2.05;;
52940;SDS011;62001;53.366;6.636;2022-10-16T02:35:40;6.68;;;2.08;;
52940;SDS011;62001;53.366;6.636;2022-10-16T02:38:07;6.82;;;2.20;;
52940;SDS011;62001;53.366;6.636;2022-10-16T02:40:34;5.85;;;1.90;;
52940;SDS011;62001;53.366;6.636;2022-10-16T02:43:02;8.55;;;2.28;;
52940;SDS011;62001;53.366;6.636;2022-10-16T02:45:29;7.85;;;2.00;;
52940;SDS011;62001;53.366;6.636;2022-10-16T02:47:55;6.68;;;1.88;;
52940;SDS011;62001;53.366;6.636;2022-10-16T02:50:21;4.82;;;1.98;;
52940;SDS011;62001;53.366;6.636;2022-10-16T02:52:47;5.97;;;1.92;;
52940;SDS011;62001;53.366;6.636;2022-10-16T02:55:13;4.47;;;2.03;;
52940;SDS011;62001;53.366;6.636;2022-10-16T02:57:39;3.67;;;2.10;;
52940;SDS011;62001;53.366;6.636;2022-10-16T03:00:06;5.32;;;2.40;;
52940;SDS011;62001;53.366;6.636;2022-10-16T03:02:33;6.50;;;2.05;;
52940;SDS011;62001;53.366;6.636;2022-10-16T03:04:59;8.60;;;2.58;;
52940;SDS011;62001;53.366;6.636;2022-10-16T03:07:25;5.53;;;2.42;;
52940;SDS011;62001;53.366;6.636;2022-10-16T03:09:50;4.90;;;2.42;;
52940;SDS011;62001;53.366;6.636;2022-10-16T03:12:16;6.47;;;2.58;;
52940;SDS011;62001;53.366;6.636;2022-10-16T03:14:42;7.43;;;3.05;;
52940;SDS011;62001;53.366;6.636;2022-10-16T03:17:08;8.75;;;2.80;;
52940;SDS011;62001;53.366;6.636;2022-10-16T03:19:34;7.75;;;2.72;;
52940;SDS011;62001;53.366;6.636;2022-10-16T03:22:01;8.82;;;2.92;;
52940;SDS011;62001;53.366;6.636;2022-10-16T03:24:27;4.57;;;2.70;;
52940;SDS011;62001;53.366;6.636;2022-10-16T03:26:52;6.57;;;2.80;;
52940;SDS011;62001;53.366;6.636;2022-10-16T03:29:18;7.97;;;2.47;;
52940;SDS011;62001;53.366;6.636;2022-10-16T03:31:44;7.22;;;2.40;;
52940;SDS011;62001;53.366;6.636;2022-10-16T03:34:10;4.82;;;2.10;;
52940;SDS011;62001;53.366;6.636;2022-10-16T03:36:36;3.30;;;2.17;;
52940;SDS011;62001;53.366;6.636;2022-10-16T03:39:02;7.18;;;2.45;;
52940;SDS011;62001;53.366;6.636;2022-10-16T03:41:29;10.27;;;2.58;;
52940;SDS011;62001;53.366;6.636;2022-10-16T03:43:55;5.03;;;1.98;;
52940;SDS011;62001;53.366;6.636;2022-10-16T03:46:21;4.57;;;2.00;;
52940;SDS011;62001;53.366;6.636;2022-10-16T03:48:47;3.80;;;1.90;;
52940;SDS011;62001;53.366;6.636;2022-10-16T03:51:13;6.45;;;2.35;;
52940;SDS011;62001;53.366;6.636;2022-10-16T03:53:39;3.40;;;2.00;;
52940;SDS011;62001;53.366;6.636;2022-10-16T03:56:04;7.40;;;1.92;;
52940;SDS011;62001;53.366;6.636;2022-10-16T03:58:31;4.75;;;1.88;;
52940;SDS011;62001;53.366;6.636;2022-10-16T04:00:56;4.38;;;2.08;;
52940;SDS011;62001;53.366;6.636;2022-10-16T04:03:22;4.25;;;1.90;;
52940;SDS011;62001;53.366;6.636;2022-10-16T04:05:48;5.60;;;2.20;;
52940;SDS011;62001;53.366;6.636;2022-10-16T04:08:15;4.22;;;2.28;;
52940;SDS011;62001;53.366;6.636;2022-10-16T04:10:44;4.65;;;2.20;;
52940;SDS011;62001;53.366;6.636;2022-10-16T04:13:10;3.67;;;2.03;;
52940;SDS011;62001;53.366;6.636;2022-10-16T04:15:37;3.45;;;1.67;;
52940;SDS011;62001;53.366;6.636;2022-10-16T04:18:04;4.72;;;1.60;;
52940;SDS011;62001;53.366;6.636;2022-10-16T04:20:30;5.40;;;1.55;;
52940;SDS011;62001;53.366;6.636;2022-10-16T04:22:56;2.50;;;1.55;;
52940;SDS011;62001;53.366;6.636;2022-10-16T04:25:22;4.40;;;2.00;;
52940;SDS011;62001;53.366;6.636;2022-10-16T04:27:47;2.85;;;1.70;;
52940;SDS011;62001;53.366;6.636;2022-10-16T04:30:13;6.18;;;1.45;;
52940;SDS011;62001;53.366;6.636;2022-10-16T04:32:40;8.13;;;1.67;;
52940;SDS011;62001;53.366;6.636;2022-10-16T04:35:06;6.22;;;1.83;;
52940;SDS011;62001;53.366;6.636;2022-10-16T04:37:32;3.83;;;1.70;;
52940;SDS011;62001;53.366;6.636;2022-10-16T04:39:58;5.57;;;1.88;;
52940;SDS011;62001;53.366;6.636;2022-10-16T04:42:23;5.03;;;1.70;;
52940;SDS011;62001;53.366;6.636;2022-10-16T04:44:49;5.30;;;1.85;;
52940;SDS011;62001;53.366;6.636;2022-10-16T04:47:15;4.60;;;1.80;;
52940;SDS011;62001;53.366;6.636;2022-10-16T04:49:41;7.90;;;2.38;;
52940;SDS011;62001;53.366;6.636;2022-10-16T04:52:06;5.30;;;2.03;;
52940;SDS011;62001;53.366;6.636;2022-10-16T04:54:34;8.80;;;1.98;;
52940;SDS011;62001;53.366;6.636;2022-10-16T04:57:00;6.72;;;2.60;;
52940;SDS011;62001;53.366;6.636;2022-10-16T04:59:26;4.75;;;2.22;;
52940;SDS011;62001;53.366;6.636;2022-10-16T05:01:52;8.23;;;2.40;;
52940;SDS011;62001;53.366;6.636;2022-10-16T05:04:17;8.27;;;2.55;;
52940;SDS011;62001;53.366;6.636;2022-10-16T05:06:43;5.63;;;2.58;;
52940;SDS011;62001;53.366;6.636;2022-10-16T05:09:09;6.47;;;2.20;;
52940;SDS011;62001;53.366;6.636;2022-10-16T05:11:35;5.57;;;2.60;;
52940;SDS011;62001;53.366;6.636;2022-10-16T05:14:01;6.05;;;2.78;;
52940;SDS011;62001;53.366;6.636;2022-10-16T05:16:27;6.75;;;3.03;;
52940;SDS011;62001;53.366;6.636;2022-10-16T05:18:52;6.70;;;2.47;;
52940;SDS011;62001;53.366;6.636;2022-10-16T05:21:19;8.75;;;2.55;;
52940;SDS011;62001;53.366;6.636;2022-10-16T05:23:45;4.70;;;2.40;;
52940;SDS011;62001;53.366;6.636;2022-10-16T05:26:11;4.25;;;2.08;;
52940;SDS011;62001;53.366;6.636;2022-10-16T05:28:36;6.22;;;2.42;;
52940;SDS011;62001;53.366;6.636;2022-10-16T05:31:06;6.65;;;2.25;;
52940;SDS011;62001;53.366;6.636;2022-10-16T05:33:33;5.70;;;2.00;;
52940;SDS011;62001;53.366;6.636;2022-10-16T05:36:03;4.15;;;2.08;;
52940;SDS011;62001;53.366;6.636;2022-10-16T05:38:34;6.35;;;2.08;;
52940;SDS011;62001;53.366;6.636;2022-10-16T05:41:01;4.13;;;2.25;;
52940;SDS011;62001;53.366;6.636;2022-10-16T05:43:28;4.80;;;2.17;;
52940;SDS011;62001;53.366;6.636;2022-10-16T05:45:55;5.82;;;2.40;;
52940;SDS011;62001;53.366;6.636;2022-10-16T05:48:30;4.80;;;2.17;;
52940;SDS011;62001;53.366;6.636;2022-10-16T05:50:58;5.65;;;2.17;;
52940;SDS011;62001;53.366;6.636;2022-10-16T05:53:28;5.30;;;2.30;;
52940;SDS011;62001;53.366;6.636;2022-10-16T05:55:55;5.82;;;2.33;;
52940;SDS011;62001;53.366;6.636;2022-10-16T05:58:21;6.82;;;2.03;;
52940;SDS011;62001;53.366;6.636;2022-10-16T06:00:58;5.60;;;2.42;;
52940;SDS011;62001;53.366;6.636;2022-10-16T06:03:25;4.25;;;2.20;;
52940;SDS011;62001;53.366;6.636;2022-10-16T06:05:51;7.63;;;2.20;;
52940;SDS011;62001;53.366;6.636;2022-10-16T06:08:18;4.93;;;2.28;;
52940;SDS011;62001;53.366;6.636;2022-10-16T06:10:45;3.83;;;2.17;;
52940;SDS011;62001;53.366;6.636;2022-10-16T06:13:11;6.65;;;2.15;;
52940;SDS011;62001;53.366;6.636;2022-10-16T06:15:38;6.03;;;2.30;;
52940;SDS011;62001;53.366;6.636;2022-10-16T06:18:06;5.53;;;2.03;;
52940;SDS011;62001;53.366;6.636;2022-10-16T06:20:36;3.70;;;2.17;;
52940;SDS011;62001;53.366;6.636;2022-10-16T06:23:03;6.53;;;2.20;;
52940;SDS011;62001;53.366;6.636;2022-10-16T06:25:29;8.52;;;2.42;;
52940;SDS011;62001;53.366;6.636;2022-10-16T06:27:56;6.88;;;2.63;;
52940;SDS011;62001;53.366;6.636;2022-10-16T06:30:22;8.75;;;2.50;;
52940;SDS011;62001;53.366;6.636;2022-10-16T06:32:48;8.35;;;2.65;;
52940;SDS011;62001;53.366;6.636;2022-10-16T06:35:14;6.22;;;2.33;;
52940;SDS011;62001;53.366;6.636;2022-10-16T06:37:39;5.63;;;4.25;;
52940;SDS011;62001;53.366;6.636;2022-10-16T06:40:05;7.05;;;2.88;;
52940;SDS011;62001;53.366;6.636;2022-10-16T06:42:31;4.95;;;2.90;;
52940;SDS011;62001;53.366;6.636;2022-10-16T06:44:57;7.25;;;2.88;;
52940;SDS011;62001;53.366;6.636;2022-10-16T06:47:23;7.72;;;2.50;;
52940;SDS011;62001;53.366;6.636;2022-10-16T06:49:49;5.50;;;2.55;;
52940;SDS011;62001;53.366;6.636;2022-10-16T06:52:14;6.97;;;2.97;;
52940;SDS011;62001;53.366;6.636;2022-10-16T06:54:40;7.85;;;3.03;;
52940;SDS011;62001;53.366;6.636;2022-10-16T06:57:06;7.50;;;2.60;;
52940;SDS011;62001;53.366;6.636;2022-10-16T06:59:32;8.00;;;2.78;;
52940;SDS011;62001;53.366;6.636;2022-10-16T07:01:58;5.97;;;2.67;;
52940;SDS011;62001;53.366;6.636;2022-10-16T07:04:23;6.32;;;2.83;;
52940;SDS011;62001;53.366;6.636;2022-10-16T07:06:49;6.38;;;2.67;;
52940;SDS011;62001;53.366;6.636;2022-10-16T07:09:16;8.48;;;2.83;;
52940;SDS011;62001;53.366;6.636;2022-10-16T07:11:42;7.20;;;3.17;;
52940;SDS011;62001;53.366;6.636;2022-10-16T07:14:18;9.80;;;3.17;;
52940;SDS011;62001;53.366;6.636;2022-10-16T07:16:45;7.60;;;3.10;;
52940;SDS011;62001;53.366;6.636;2022-10-16T07:19:11;5.95;;;3.30;;
52940;SDS011;62001;53.366;6.636;2022-10-16T07:21:39;7.65;;;3.10;;
52940;SDS011;62001;53.366;6.636;2022-10-16T07:24:07;7.40;;;2.95;;
52940;SDS011;62001;53.366;6.636;2022-10-16T07:26:38;4.50;;;2.70;;
52940;SDS011;62001;53.366;6.636;2022-10-16T07:29:05;6.07;;;2.80;;
52940;SDS011;62001;53.366;6.636;2022-10-16T07:34:11;8.25;;;2.30;;
52940;SDS011;62001;53.366;6.636;2022-10-16T07:36:37;5.03;;;2.20;;
52940;SDS011;62001;53.366;6.636;2022-10-16T07:39:03;7.65;;;2.42;;
52940;SDS011;62001;53.366;6.636;2022-10-16T07:41:29;9.40;;;3.15;;
52940;SDS011;62001;53.366;6.636;2022-10-16T07:43:57;8.40;;;2.65;;
52940;SDS011;62001;53.366;6.636;2022-10-16T07:46:25;6.30;;;2.50;;
52940;SDS011;62001;53.366;6.636;2022-10-16T07:48:51;7.97;;;2.30;;
52940;SDS011;62001;53.366;6.636;2022-10-16T07:51:18;12.65;;;2.17;;
52940;SDS011;62001;53.366;6.636;2022-10-16T07:53:46;9.45;;;2.13;;
52940;SDS011;62001;53.366;6.636;2022-10-16T07:56:12;9.02;;;2.20;;
52940;SDS011;62001;53.366;6.636;2022-10-16T07:58:39;6.68;;;1.85;;
52940;SDS011;62001;53.366;6.636;2022-10-16T08:01:09;9.68;;;1.90;;
52940;SDS011;62001;53.366;6.636;2022-10-16T08:03:36;6.07;;;1.90;;
52940;SDS011;62001;53.366;6.636;2022-10-16T08:06:02;6.63;;;2.28;;
52940;SDS011;62001;53.366;6.636;2022-10-16T08:08:29;10.30;;;2.55;;
52940;SDS011;62001;53.366;6.636;2022-10-16T08:10:55;5.93;;;2.60;;
52940;SDS011;62001;53.366;6.636;2022-10-16T08:13:21;5.28;;;2.50;;
52940;SDS011;62001;53.366;6.636;2022-10-16T08:15:47;7.28;;;2.40;;
52940;SDS011;62001;53.366;6.636;2022-10-16T08:18:13;6.55;;;2.40;;
52940;SDS011;62001;53.366;6.636;2022-10-16T08:20:40;4.85;;;2.63;;
52940;SDS011;62001;53.366;6.636;2022-10-16T08:23:06;6.88;;;2.28;;
52940;SDS011;62001;53.366;6.636;2022-10-16T08:25:35;4.30;;;2.47;;
52940;SDS011;62001;53.366;6.636;2022-10-16T08:28:03;7.38;;;2.55;;
52940;SDS011;62001;53.366;6.636;2022-10-16T08:30:30;6.27;;;2.70;;
52940;SDS011;62001;53.366;6.636;2022-10-16T08:32:56;7.05;;;2.53;;
52940;SDS011;62001;53.366;6.636;2022-10-16T08:35:23;6.68;;;3.13;;
52940;SDS011;62001;53.366;6.636;2022-10-16T08:37:49;5.22;;;2.70;;
52940;SDS011;62001;53.366;6.636;2022-10-16T08:40:18;9.10;;;3.25;;
52940;SDS011;62001;53.366;6.636;2022-10-16T08:43:05;7.53;;;2.95;;
52940;SDS011;62001;53.366;6.636;2022-10-16T08:48:24;7.53;;;2.67;;
52940;SDS011;62001;53.366;6.636;2022-10-16T08:50:56;8.88;;;2.17;;
52940;SDS011;62001;53.366;6.636;2022-10-16T08:53:31;9.77;;;2.60;;
52940;SDS011;62001;53.366;6.636;2022-10-16T08:56:10;6.45;;;1.98;;
52940;SDS011;62001;53.366;6.636;2022-10-16T08:58:35;6.78;;;2.17;;
52940;SDS011;62001;53.366;6.636;2022-10-16T09:01:03;7.03;;;2.03;;
52940;SDS011;62001;53.366;6.636;2022-10-16T09:12:03;5.30;;;2.22;;
52940;SDS011;62001;53.366;6.636;2022-10-16T09:14:49;6.38;;;1.98;;
52940;SDS011;62001;53.366;6.636;2022-10-16T09:17:57;3.17;;;1.70;;
52940;SDS011;62001;53.366;6.636;2022-10-16T09:23:25;6.97;;;2.13;;
52940;SDS011;62001;53.366;6.636;2022-10-16T09:28:19;7.68;;;2.15;;
52940;SDS011;62001;53.366;6.636;2022-10-16T09:30:45;9.70;;;2.35;;
52940;SDS011;62001;53.366;6.636;2022-10-16T09:33:13;11.98;;;2.50;;
52940;SDS011;62001;53.366;6.636;2022-10-16T09:35:44;9.50;;;2.00;;
52940;SDS011;62001;53.366;6.636;2022-10-16T09:38:31;9.10;;;2.05;;
52940;SDS011;62001;53.366;6.636;2022-10-16T09:41:03;8.60;;;2.00;;
52940;SDS011;62001;53.366;6.636;2022-10-16T09:46:21;10.38;;;2.05;;
52940;SDS011;62001;53.366;6.636;2022-10-16T09:48:50;11.02;;;2.30;;
52940;SDS011;62001;53.366;6.636;2022-10-16T09:51:20;11.40;;;2.55;;
52940;SDS011;62001;53.366;6.636;2022-10-16T09:53:53;13.93;;;2.80;;
52940;SDS011;62001;53.366;6.636;2022-10-16T09:56:33;11.70;;;2.30;;
52940;SDS011;62001;53.366;6.636;2022-10-16T10:02:04;17.63;;;2.67;;
52940;SDS011;62001;53.366;6.636;2022-10-16T10:04:39;10.77;;;2.20;;
52940;SDS011;62001;53.366;6.636;2022-10-16T10:07:16;13.85;;;2.30;;
52940;SDS011;62001;53.366;6.636;2022-10-16T10:09:45;12.63;;;2.55;;
52940;SDS011;62001;53.366;6.636;2022-10-16T10:12:19;12.48;;;3.03;;
52940;SDS011;62001;53.366;6.636;2022-10-16T10:15:07;16.63;;;3.20;;
52940;SDS011;62001;53.366;6.636;2022-10-16T10:17:45;13.55;;;2.70;;
52940;SDS011;62001;53.366;6.636;2022-10-16T10:20:22;14.60;;;2.42;;
52940;SDS011;62001;53.366;6.636;2022-10-16T10:22:57;9.05;;;2.58;;
52940;SDS011;62001;53.366;6.636;2022-10-16T10:31:11;14.13;;;2.58;;
52940;SDS011;62001;53.366;6.636;2022-10-16T10:33:53;17.27;;;3.38;;
52940;SDS011;62001;53.366;6.636;2022-10-16T10:44:27;12.07;;;2.65;;
52940;SDS011;62001;53.366;6.636;2022-10-16T10:52:47;15.63;;;3.40;;
52940;SDS011;62001;53.366;6.636;2022-10-16T10:58:10;13.50;;;3.17;;
52940;SDS011;62001;53.366;6.636;2022-10-16T11:06:40;11.18;;;2.70;;
52940;SDS011;62001;53.366;6.636;2022-10-16T11:09:12;16.30;;;3.40;;
52940;SDS011;62001;53.366;6.636;2022-10-16T11:14:09;15.77;;;3.20;;
52940;SDS011;62001;53.366;6.636;2022-10-16T11:21:56;15.30;;;2.67;;
52940;SDS011;62001;53.366;6.636;2022-10-16T11:24:48;11.70;;;2.63;;
52940;SDS011;62001;53.366;6.636;2022-10-16T11:27:41;14.32;;;2.47;;
52940;SDS011;62001;53.366;6.636;2022-10-16T11:30:13;13.43;;;2.95;;
52940;SDS011;62001;53.366;6.636;2022-10-16T11:32:50;10.98;;;2.97;;
52940;SDS011;62001;53.366;6.636;2022-10-16T11:43:43;19.00;;;3.53;;
52940;SDS011;62001;53.366;6.636;2022-10-16T11:46:27;14.02;;;3.28;;
52940;SDS011;62001;53.366;6.636;2022-10-16T11:49:10;13.48;;;3.00;;
52940;SDS011;62001;53.366;6.636;2022-10-16T11:51:40;14.32;;;2.58;;
52940;SDS011;62001;53.366;6.636;2022-10-16T11:54:32;18.63;;;3.08;;
52940;SDS011;62001;53.366;6.636;2022-10-16T11:57:02;21.52;;;3.28;;
52940;SDS011;62001;53.366;6.636;2022-10-16T12:00:09;20.95;;;3.40;;
52940;SDS011;62001;53.366;6.636;2022-10-16T12:05:25;15.18;;;3.10;;
52940;SDS011;62001;53.366;6.636;2022-10-16T12:08:08;11.75;;;2.65;;
52940;SDS011;62001;53.366;6.636;2022-10-16T12:10:36;17.98;;;3.47;;
52940;SDS011;62001;53.366;6.636;2022-10-16T12:13:04;12.43;;;3.25;;
52940;SDS011;62001;53.366;6.636;2022-10-16T12:15:50;15.25;;;3.13;;
52940;SDS011;62001;53.366;6.636;2022-10-16T12:18:22;14.77;;;3.45;;
52940;SDS011;62001;53.366;6.636;2022-10-16T12:20:59;12.77;;;2.90;;
52940;SDS011;62001;53.366;6.636;2022-10-16T12:23:30;12.18;;;2.55;;
52940;SDS011;62001;53.366;6.636;2022-10-16T12:26:13;8.45;;;2.05;;
52940;SDS011;62001;53.366;6.636;2022-10-16T12:28:48;11.38;;;2.08;;
52940;SDS011;62001;53.366;6.636;2022-10-16T12:31:16;12.63;;;2.45;;
52940;SDS011;62001;53.366;6.636;2022-10-16T12:33:56;11.75;;;2.17;;
52940;SDS011;62001;53.366;6.636;2022-10-16T12:36:31;10.68;;;2.10;;
52940;SDS011;62001;53.366;6.636;2022-10-16T12:38:59;10.93;;;2.40;;
52940;SDS011;62001;53.366;6.636;2022-10-16T12:49:04;8.70;;;2.25;;
52940;SDS011;62001;53.366;6.636;2022-10-16T12:51:37;11.45;;;2.13;;
52940;SDS011;62001;53.366;6.636;2022-10-16T13:11:02;10.35;;;2.42;;
52940;SDS011;62001;53.366;6.636;2022-10-16T13:24:23;9.00;;;2.20;;
52940;SDS011;62001;53.366;6.636;2022-10-16T13:29:30;12.05;;;2.80;;
52940;SDS011;62001;53.366;6.636;2022-10-16T13:31:58;12.77;;;2.08;;
52940;SDS011;62001;53.366;6.636;2022-10-16T13:34:26;9.43;;;2.33;;
52940;SDS011;62001;53.366;6.636;2022-10-16T13:36:53;14.13;;;2.50;;
52940;SDS011;62001;53.366;6.636;2022-10-16T13:44:50;11.13;;;2.30;;
52940;SDS011;62001;53.366;6.636;2022-10-16T13:52:24;8.63;;;2.30;;
52940;SDS011;62001;53.366;6.636;2022-10-16T13:54:50;14.98;;;2.38;;
52940;SDS011;62001;53.366;6.636;2022-10-16T13:57:16;10.25;;;2.10;;
52940;SDS011;62001;53.366;6.636;2022-10-16T13:59:42;11.30;;;2.35;;
52940;SDS011;62001;53.366;6.636;2022-10-16T14:02:17;13.55;;;2.33;;
52940;SDS011;62001;53.366;6.636;2022-10-16T14:04:49;10.98;;;2.05;;
52940;SDS011;62001;53.366;6.636;2022-10-16T14:07:37;11.80;;;2.53;;
52940;SDS011;62001;53.366;6.636;2022-10-16T14:10:06;12.23;;;2.40;;
52940;SDS011;62001;53.366;6.636;2022-10-16T14:12:45;12.80;;;2.70;;
52940;SDS011;62001;53.366;6.636;2022-10-16T14:15:45;9.43;;;2.05;;
52940;SDS011;62001;53.366;6.636;2022-10-16T14:18:18;11.85;;;2.35;;
52940;SDS011;62001;53.366;6.636;2022-10-16T14:20:48;13.02;;;2.42;;
52940;SDS011;62001;53.366;6.636;2022-10-16T14:23:28;21.85;;;7.28;;
52940;SDS011;62001;53.366;6.636;2022-10-16T14:28:34;13.68;;;3.08;;
52940;SDS011;62001;53.366;6.636;2022-10-16T14:31:01;11.90;;;2.80;;
52940;SDS011;62001;53.366;6.636;2022-10-16T14:33:42;12.93;;;2.67;;
52940;SDS011;62001;53.366;6.636;2022-10-16T14:36:14;13.68;;;2.85;;
52940;SDS011;62001;53.366;6.636;2022-10-16T14:41:23;15.00;;;2.58;;
52940;SDS011;62001;53.366;6.636;2022-10-16T14:43:53;13.23;;;3.30;;
52940;SDS011;62001;53.366;6.636;2022-10-16T14:46:22;19.00;;;4.53;;
52940;SDS011;62001;53.366;6.636;2022-10-16T14:51:40;16.67;;;7.38;;
52940;SDS011;62001;53.366;6.636;2022-10-16T14:59:23;15.13;;;3.83;;
52940;SDS011;62001;53.366;6.636;2022-10-16T15:01:57;14.25;;;4.70;;
52940;SDS011;62001;53.366;6.636;2022-10-16T15:04:23;19.98;;;5.43;;
52940;SDS011;62001;53.366;6.636;2022-10-16T15:06:49;24.25;;;12.35;;
52940;SDS011;62001;53.366;6.636;2022-10-16T15:09:15;19.20;;;9.27;;
52940;SDS011;62001;53.366;6.636;2022-10-16T15:11:41;16.05;;;5.53;;
52940;SDS011;62001;53.366;6.636;2022-10-16T15:14:09;14.20;;;4.43;;
52940;SDS011;62001;53.366;6.636;2022-10-16T15:16:37;10.63;;;3.40;;
52940;SDS011;62001;53.366;6.636;2022-10-16T15:19:03;15.20;;;3.65;;
52940;SDS011;62001;53.366;6.636;2022-10-16T15:21:30;13.73;;;3.78;;
52940;SDS011;62001;53.366;6.636;2022-10-16T15:23:57;14.02;;;3.45;;
52940;SDS011;62001;53.366;6.636;2022-10-16T15:26:25;11.45;;;2.88;;
52940;SDS011;62001;53.366;6.636;2022-10-16T15:28:52;13.18;;;3.13;;
52940;SDS011;62001;53.366;6.636;2022-10-16T15:31:18;13.65;;;3.65;;
52940;SDS011;62001;53.366;6.636;2022-10-16T15:33:48;11.95;;;3.60;;
52940;SDS011;62001;53.366;6.636;2022-10-16T15:36:25;13.07;;;4.10;;
52940;SDS011;62001;53.366;6.636;2022-10-16T15:38:54;24.02;;;9.57;;
52940;SDS011;62001;53.366;6.636;2022-10-16T15:41:21;20.25;;;8.27;;
52940;SDS011;62001;53.366;6.636;2022-10-16T15:43:50;17.17;;;7.45;;
52940;SDS011;62001;53.366;6.636;2022-10-16T15:46:17;16.80;;;5.70;;
52940;SDS011;62001;53.366;6.636;2022-10-16T15:48:45;19.55;;;3.65;;
52940;SDS011;62001;53.366;6.636;2022-10-16T15:51:11;16.05;;;3.28;;
52940;SDS011;62001;53.366;6.636;2022-10-16T15:53:37;11.95;;;2.90;;
52940;SDS011;62001;53.366;6.636;2022-10-16T15:56:03;21.40;;;6.05;;
52940;SDS011;62001;53.366;6.636;2022-10-16T15:58:30;17.00;;;7.35;;
52940;SDS011;62001;53.366;6.636;2022-10-16T16:00:56;20.63;;;7.20;;
52940;SDS011;62001;53.366;6.636;2022-10-16T16:03:25;10.75;;;2.78;;
52940;SDS011;62001;53.366;6.636;2022-10-16T16:05:52;8.73;;;3.15;;
52940;SDS011;62001;53.366;6.636;2022-10-16T16:08:18;13.57;;;4.13;;
52940;SDS011;62001;53.366;6.636;2022-10-16T16:10:44;15.40;;;3.20;;
52940;SDS011;62001;53.366;6.636;2022-10-16T16:13:10;10.48;;;2.90;;
52940;SDS011;62001;53.366;6.636;2022-10-16T16:15:39;15.38;;;2.72;;
52940;SDS011;62001;53.366;6.636;2022-10-16T16:18:05;14.57;;;2.70;;
52940;SDS011;62001;53.366;6.636;2022-10-16T16:20:32;12.95;;;3.08;;
52940;SDS011;62001;53.366;6.636;2022-10-16T16:22:57;14.82;;;2.90;;
52940;SDS011;62001;53.366;6.636;2022-10-16T16:25:23;13.30;;;2.72;;
52940;SDS011;62001;53.366;6.636;2022-10-16T16:27:49;13.25;;;2.70;;
52940;SDS011;62001;53.366;6.636;2022-10-16T16:30:15;14.73;;;2.88;;
52940;SDS011;62001;53.366;6.636;2022-10-16T16:32:42;10.32;;;2.55;;
52940;SDS011;62001;53.366;6.636;2022-10-16T16:35:08;10.50;;;2.63;;
52940;SDS011;62001;53.366;6.636;2022-10-16T16:37:34;12.35;;;3.33;;
52940;SDS011;62001;53.366;6.636;2022-10-16T16:40:00;16.90;;;3.45;;
52940;SDS011;62001;53.366;6.636;2022-10-16T16:42:26;14.38;;;3.72;;
52940;SDS011;62001;53.366;6.636;2022-10-16T16:44:52;15.40;;;3.47;;
52940;SDS011;62001;53.366;6.636;2022-10-16T16:47:18;10.90;;;2.92;;
52940;SDS011;62001;53.366;6.636;2022-10-16T16:49:44;15.85;;;3.33;;
52940;SDS011;62001;53.366;6.636;2022-10-16T16:52:11;16.73;;;3.45;;
52940;SDS011;62001;53.366;6.636;2022-10-16T16:54:38;14.35;;;3.47;;
52940;SDS011;62001;53.366;6.636;2022-10-16T16:57:04;8.57;;;2.95;;
52940;SDS011;62001;53.366;6.636;2022-10-16T16:59:30;17.75;;;3.55;;
52940;SDS011;62001;53.366;6.636;2022-10-16T17:01:58;13.77;;;3.47;;
52940;SDS011;62001;53.366;6.636;2022-10-16T17:04:25;20.10;;;4.82;;
52940;SDS011;62001;53.366;6.636;2022-10-16T17:06:52;15.07;;;5.07;;
52940;SDS011;62001;53.366;6.636;2022-10-16T17:09:19;14.52;;;6.85;;
52940;SDS011;62001;53.366;6.636;2022-10-16T17:11:45;14.07;;;4.25;;
52940;SDS011;62001;53.366;6.636;2022-10-16T17:14:13;18.48;;;4.30;;
52940;SDS011;62001;53.366;6.636;2022-10-16T17:16:40;18.08;;;4.30;;
52940;SDS011;62001;53.366;6.636;2022-10-16T17:19:12;13.20;;;3.78;;
52940;SDS011;62001;53.366;6.636;2022-10-16T17:21:40;15.30;;;3.60;;
52940;SDS011;62001;53.366;6.636;2022-10-16T17:24:06;14.70;;;3.50;;
52940;SDS011;62001;53.366;6.636;2022-10-16T17:26:32;13.55;;;3.33;;
52940;SDS011;62001;53.366;6.636;2022-10-16T17:29:02;19.00;;;3.92;;
52940;SDS011;62001;53.366;6.636;2022-10-16T17:31:30;21.38;;;3.92;;
52940;SDS011;62001;53.366;6.636;2022-10-16T17:33:58;16.13;;;3.90;;